Time;durP1;ratioP1;P1;durP2;ratioP2;P2;SDS_P1;SDS_P2;PMS_P1;PMS_P2;Temp;Humidity;BMP_temperature;BMP_pressure;BME280_temperature;BME280_humidity;BME280_pressure;Samples;Min_cycle;Max_cycle;Signal;HPM_P1;HPM_P2
2022/06/13 00:01:24;;;;;;;33.33;11.27;;;;;;;17.13;52.45;99268.00;4840125;29;20042;-87
2022/06/13 00:03:51;;;;;;;26.02;10.60;;;;;;;17.09;53.25;99265.16;4831624;29;20303;-88
2022/06/13 00:07:06;;;;;;;;;;;;;;;17.05;52.96;99263.44;4813930;29;20088;-84
2022/06/13 00:09:31;;;;;;;58.83;10.93;;;;;;;16.86;52.45;99233.81;4817005;29;20503;-87
2022/06/13 00:11:58;;;;;;;58.40;11.20;;;;;;;16.89;52.97;99255.19;4824597;29;20076;-85
2022/06/13 00:14:23;;;;;;;68.28;12.00;;;;;;;16.90;53.64;99260.34;4838542;29;20575;-86
2022/06/13 00:16:50;;;;;;;80.93;13.05;;;;;;;16.88;54.34;99256.31;4841262;29;20500;-89
2022/06/13 00:19:16;;;;;;;52.65;11.15;;;;;;;16.82;53.51;99255.00;4844277;29;20144;-86
2022/06/13 00:21:42;;;;;;;31.60;10.70;;;;;;;16.80;53.83;99260.88;4812589;29;20044;-87
2022/06/13 00:24:09;;;;;;;33.83;11.35;;;;;;;16.67;53.75;99242.75;4841281;29;20038;-87
2022/06/13 00:26:37;;;;;;;30.63;10.52;;;;;;;16.69;54.31;99243.22;4824837;29;20424;-86
2022/06/13 00:29:04;;;;;;;45.83;10.80;;;;;;;16.70;54.10;99244.81;4824965;29;20041;-87
2022/06/13 00:31:30;;;;;;;32.63;11.18;;;;;;;16.67;55.26;99254.59;4823813;29;20054;-88
2022/06/13 00:33:56;;;;;;;33.08;10.45;;;;;;;16.63;53.99;99253.72;4822010;29;20054;-87
2022/06/13 00:36:23;;;;;;;35.80;11.37;;;;;;;16.64;54.23;99243.47;4824467;29;20094;-87
2022/06/13 00:38:52;;;;;;;;;;;;;;;16.59;54.02;99244.56;4840535;29;20512;-88
2022/06/13 00:41:27;;;;;;;26.75;9.85;;;;;;;16.57;54.04;99248.81;4809128;29;20038;-86
2022/06/13 00:43:56;;;;;;;31.00;10.90;;;;;;;16.44;54.24;99229.56;4822621;29;20046;-88
2022/06/13 00:46:23;;;;;;;27.85;10.50;;;;;;;16.43;54.34;99229.94;4809457;29;20038;-86
2022/06/13 00:48:56;;;;;;;42.88;10.88;;;;;;;16.42;54.64;99228.31;4809656;29;20049;-86
2022/06/13 00:51:23;;;;;;;34.33;11.38;;;;;;;16.46;53.69;99243.03;4840810;29;20476;-87
2022/06/13 00:53:50;;;;;;;35.15;9.52;;;;;;;16.45;53.94;99242.19;4809007;29;20074;-85
2022/06/13 00:56:21;;;;;;;28.08;9.18;;;;;;;16.43;53.95;99233.50;4835756;29;20062;-85
2022/06/13 00:58:58;;;;;;;31.08;9.20;;;;;;;16.43;53.58;99236.25;4812246;29;20081;-86
2022/06/13 01:01:25;;;;;;;36.13;9.38;;;;;;;16.33;54.22;99211.16;4843538;29;20049;-85
2022/06/13 01:03:52;;;;;;;26.30;9.13;;;;;;;16.45;53.41;99238.63;4811080;29;20041;-86
2022/06/13 01:06:20;;;;;;;26.58;9.70;;;;;;;16.30;54.85;99214.59;4826889;29;20057;-86
2022/06/13 01:08:47;;;;;;;23.95;8.57;;;;;;;16.32;53.34;99220.56;4843286;29;20050;-85
2022/06/13 01:11:20;;;;;;;24.23;8.43;;;;;;;16.44;53.39;99242.56;4821969;29;20057;-86
2022/06/13 01:13:55;;;;;;;19.45;8.50;;;;;;;16.41;53.90;99235.00;4839117;29;20109;-88
2022/06/13 01:17:03;;;;;;;29.35;8.95;;;;;;;16.42;53.81;99236.59;4842112;29;20070;-86
2022/06/13 01:19:53;;;;;;;36.95;8.75;;;;;;;16.42;54.63;99242.09;4832929;29;20052;-87
2022/06/13 01:22:36;;;;;;;28.38;9.25;;;;;;;16.45;54.00;99244.16;4825756;29;20114;-86
2022/06/13 01:25:05;;;;;;;27.67;8.48;;;;;;;16.39;55.09;99232.59;4819934;29;20042;-86
2022/06/13 01:27:51;;;;;;;26.95;8.98;;;;;;;16.43;56.02;99232.69;4841635;29;20044;-87
2022/06/13 01:30:32;;;;;;;29.65;8.65;;;;;;;16.58;56.05;99247.66;4808978;29;20046;-86
2022/06/13 01:32:59;;;;;;;19.20;7.63;;;;;;;16.54;55.50;99232.97;4803397;29;20063;-87
2022/06/13 01:35:46;;;;;;;17.27;7.82;;;;;;;16.68;55.16;99253.44;4823862;29;20062;-86
2022/06/13 01:38:42;;;;;;;26.40;7.70;;;;;;;16.64;55.00;99235.19;4838862;29;20045;-86
2022/06/13 01:41:23;;;;;;;20.00;7.60;;;;;;;16.76;54.15;99240.66;4843429;29;20050;-86
2022/06/13 01:44:06;;;;;;;19.52;7.88;;;;;;;16.83;55.05;99249.13;4826527;29;20046;-85
2022/06/13 01:47:01;;;;;;;26.95;8.40;;;;;;;16.77;53.31;99236.75;4843071;29;20078;-84
2022/06/13 01:49:37;;;;;;;19.63;7.45;;;;;;;16.87;53.30;99247.25;4842664;29;20050;-85
2022/06/13 01:52:35;;;;;;;23.23;7.90;;;;;;;16.94;54.27;99246.63;4843061;29;20405;-88
2022/06/13 01:55:35;;;;;;;21.45;7.60;;;;;;;16.95;53.71;99239.13;4825732;29;20111;-85
2022/06/13 01:58:49;;;;;;;14.95;7.03;;;;;;;17.01;53.75;99246.00;4841813;29;20045;-86
2022/06/13 02:01:37;;;;;;;15.68;6.10;;;;;;;17.05;54.15;99242.19;4832844;29;20066;-86
2022/06/13 02:04:22;;;;;;;13.95;6.03;;;;;;;17.00;54.42;99227.84;4837629;29;20427;-88
2022/06/13 02:06:57;;;;;;;17.67;6.30;;;;;;;17.15;55.12;99240.81;4841896;29;20078;-87
2022/06/13 02:09:28;;;;;;;22.10;6.70;;;;;;;17.17;55.41;99241.25;4840308;29;20058;-87
2022/06/13 02:11:56;;;;;;;13.10;5.80;;;;;;;17.06;55.27;99226.41;4822980;29;20073;-87
2022/06/13 02:14:26;;;;;;;12.52;5.80;;;;;;;17.12;55.18;99216.69;4834675;29;20045;-86
2022/06/13 02:17:18;;;;;;;12.02;5.93;;;;;;;17.14;54.82;99226.19;4842133;29;20098;-86
2022/06/13 02:20:06;;;;;;;14.50;5.50;;;;;;;17.21;54.94;99230.28;4838934;29;20094;-88
2022/06/13 02:23:06;;;;;;;16.30;5.80;;;;;;;17.20;54.91;99225.94;4810460;29;20053;-88
2022/06/13 02:25:45;;;;;;;11.38;5.80;;;;;;;17.30;55.86;99228.94;4830492;29;20512;-88
2022/06/13 02:28:21;;;;;;;19.63;6.47;;;;;;;17.13;54.96;99215.53;4825160;29;20078;-87
2022/06/13 02:30:53;;;;;;;15.40;6.35;;;;;;;17.28;55.58;99216.63;4836840;29;20045;-86
2022/06/13 02:33:27;;;;;;;20.60;6.88;;;;;;;17.26;55.01;99205.94;4839595;29;20058;-88
2022/06/13 02:36:09;;;;;;;14.55;6.88;;;;;;;17.31;54.64;99221.44;4808044;29;20121;-86
2022/06/13 02:38:45;;;;;;;17.65;7.35;;;;;;;17.38;55.06;99229.88;4841869;29;20512;-87
2022/06/13 02:41:20;;;;;;;21.85;7.07;;;;;;;17.32;55.03;99218.34;4842077;29;20121;-85
2022/06/13 02:44:02;;;;;;;23.80;6.65;;;;;;;17.34;54.84;99216.00;4841432;29;20169;-87
2022/06/13 02:46:40;;;;;;;15.90;6.55;;;;;;;17.37;54.77;99209.75;4825799;29;20042;-86
2022/06/13 02:49:24;;;;;;;13.98;6.45;;;;;;;17.53;54.74;99226.28;4795529;29;20041;-86
2022/06/13 02:52:22;;;;;;;17.52;6.72;;;;;;;17.47;55.46;99208.38;4808211;29;20057;-87
2022/06/13 02:54:56;;;;;;;18.85;7.63;;;;;;;17.54;54.57;99200.22;4838540;29;20472;-89
2022/06/13 02:57:53;;;;;;;20.95;6.75;;;;;;;17.77;54.82;99213.38;4839103;29;20049;-84
2022/06/13 03:00:52;;;;;;;22.05;7.30;;;;;;;17.85;55.39;99212.38;4841493;29;20054;-87
2022/06/13 03:03:36;;;;;;;26.95;7.03;;;;;;;17.87;55.35;99212.78;4770692;29;20049;-89
2022/06/13 03:06:31;;;;;;;18.85;6.38;;;;;;;17.88;55.70;99213.59;4836556;29;20073;-88
2022/06/13 03:09:01;;;;;;;19.60;6.03;;;;;;;17.74;57.02;99192.75;4834687;29;20064;-87
2022/06/13 03:12:08;;;;;;;23.75;6.68;;;;;;;17.84;56.42;99200.50;4840792;29;20045;-88
2022/06/13 03:14:40;;;;;;;12.65;6.28;;;;;;;17.84;56.13;99200.50;4824556;29;20649;-86
2022/06/13 03:17:29;;;;;;;17.58;6.13;;;;;;;17.99;55.93;99209.09;4840356;29;20072;-87
2022/06/13 03:20:37;;;;;;;16.75;6.68;;;;;;;18.01;56.05;99204.81;4822371;29;20038;-86
2022/06/13 03:23:19;;;;;;;16.40;7.05;;;;;;;18.01;56.24;99207.56;4784133;30;20134;-87
2022/06/13 03:26:00;;;;;;;29.00;8.00;;;;;;;18.03;55.94;99207.19;4768124;30;20051;-87
2022/06/13 03:28:51;;;;;;;12.35;7.28;;;;;;;17.95;56.52;99199.94;4784942;30;20089;-88
2022/06/13 03:31:24;;;;;;;17.75;7.75;;;;;;;18.05;56.44;99213.97;4776498;30;20104;-86
2022/06/13 03:33:56;;;;;;;19.13;7.68;;;;;;;17.98;56.59;99191.69;4784957;30;20541;-86
2022/06/13 03:36:30;;;;;;;24.52;7.32;;;;;;;17.93;56.59;99169.84;4783787;30;20064;-88
2022/06/13 03:39:14;;;;;;;19.65;6.68;;;;;;;18.10;56.62;99207.31;4776352;30;20047;-87
2022/06/13 03:41:47;;;;;;;18.67;6.85;;;;;;;18.15;56.39;99206.25;4768886;30;20394;-87
2022/06/13 03:44:30;;;;;;;15.00;6.07;;;;;;;18.04;56.07;99170.84;4784797;30;20061;-87
2022/06/13 03:47:04;;;;;;;11.40;5.25;;;;;;;18.24;56.41;99196.50;4769688;30;20050;-87
2022/06/13 03:49:35;;;;;;;17.95;5.88;;;;;;;18.23;55.84;99183.84;4783947;30;20147;-86
2022/06/13 03:52:06;;;;;;;14.95;4.80;;;;;;;18.29;55.55;99198.19;4784037;30;20062;-89
2022/06/13 03:54:41;;;;;;;10.68;5.47;;;;;;;18.30;55.56;99186.75;4765992;30;20706;-87
2022/06/13 03:57:20;;;;;;;19.33;5.03;;;;;;;18.35;55.76;99185.66;4754541;30;20170;-87
2022/06/13 03:59:53;;;;;;;8.32;5.07;;;;;;;18.48;55.56;99192.63;4837572;29;20053;-89
2022/06/13 04:02:25;;;;;;;11.70;4.88;;;;;;;18.61;56.10;99195.19;4824822;29;20045;-87
2022/06/13 04:04:53;;;;;;;10.93;5.43;;;;;;;18.60;56.41;99174.22;4837644;29;20057;-89
2022/06/13 04:07:21;;;;;;;11.25;4.72;;;;;;;18.73;55.93;99183.94;4823140;29;20050;-87
2022/06/13 04:09:55;;;;;;;17.02;5.38;;;;;;;18.85;55.62;99181.00;4832181;29;20114;-87
2022/06/13 04:12:29;;;;;;;21.35;5.25;;;;;;;18.95;55.80;99177.59;4844558;29;20046;-88
2022/06/13 04:15:20;;;;;;;11.15;4.82;;;;;;;18.97;55.77;99174.44;4837956;29;20047;-89
2022/06/13 04:18:01;;;;;;;12.48;5.22;;;;;;;19.14;56.04;99178.63;4819040;29;20089;-88
2022/06/13 04:20:36;;;;;;;13.70;4.78;;;;;;;19.27;56.15;99176.44;4838986;29;20129;-87
2022/06/13 04:23:24;;;;;;;19.55;5.78;;;;;;;19.40;56.55;99173.09;4825653;29;20041;-86
2022/06/13 04:26:13;;;;;;;18.55;4.88;;;;;;;19.52;55.78;99172.03;4840644;29;20042;-86
2022/06/13 04:29:00;;;;;;;27.50;6.50;;;;;;;19.50;55.02;99149.44;4822587;29;20042;-87
2022/06/13 04:31:30;;;;;;;23.10;6.55;;;;;;;19.69;55.30;99157.63;4822940;29;20057;-87
2022/06/13 04:34:17;;;;;;;19.40;6.40;;;;;;;19.90;55.12;99173.72;4825322;29;20420;-89
2022/06/13 04:36:46;;;;;;;22.65;6.00;;;;;;;19.82;55.52;99140.72;4838016;29;20508;-90
2022/06/13 04:39:16;;;;;;;30.05;6.05;;;;;;;19.98;54.48;99152.41;4827445;29;20128;-87
2022/06/13 04:41:45;;;;;;;13.85;5.57;;;;;;;20.08;54.33;99148.16;4843805;29;20045;-86
2022/06/13 04:44:20;;;;;;;16.15;5.95;;;;;;;20.24;54.07;99153.47;4827177;29;20069;-86
2022/06/13 04:46:47;;;;;;;25.63;6.18;;;;;;;20.35;54.60;99160.69;4842853;29;20072;-88
2022/06/13 04:49:25;;;;;;;29.13;7.47;;;;;;;20.43;53.53;99156.03;4811121;29;20057;-86
2022/06/13 04:51:53;;;;;;;19.05;7.28;;;;;;;20.56;53.45;99148.22;4844087;29;20056;-86
2022/06/13 04:54:32;;;;;;;25.85;7.18;;;;;;;20.79;54.06;99168.25;4843519;29;20129;-86
2022/06/13 04:57:01;;;;;;;19.38;7.22;;;;;;;20.89;54.27;99161.16;4844455;29;20049;-88
2022/06/13 04:59:28;;;;;;;18.05;6.60;;;;;;;21.08;54.57;99174.00;4843787;29;20049;-86
2022/06/13 05:01:56;;;;;;;18.85;7.22;;;;;;;21.09;53.25;99161.69;4844530;29;20046;-90
2022/06/13 05:04:31;;;;;;;27.77;7.32;;;;;;;21.25;53.01;99173.31;4827263;29;20504;-86
2022/06/13 05:07:11;;;;;;;28.23;7.70;;;;;;;21.34;52.74;99153.50;4843904;29;20102;-86
2022/06/13 05:09:47;;;;;;;16.90;6.97;;;;;;;21.48;53.90;99153.59;4812229;29;20153;-88
2022/06/13 05:12:30;;;;;;;18.08;6.88;;;;;;;21.67;52.49;99155.28;4840135;29;20054;-87
2022/06/13 05:15:18;;;;;;;20.15;6.55;;;;;;;21.86;51.96;99161.72;4827264;29;20033;-86
2022/06/13 05:18:19;;;;;;;28.92;7.45;;;;;;;22.09;52.11;99175.31;4843839;29;20070;-88
2022/06/13 05:21:07;;;;;;;27.25;7.68;;;;;;;22.18;51.24;99172.94;4825862;29;20042;-86
2022/06/13 05:23:35;;;;;;;26.15;8.77;;;;;;;22.22;50.67;99174.56;4843300;29;20054;-85
2022/06/13 05:26:03;;;;;;;26.60;8.40;;;;;;;22.16;52.09;99159.44;4843509;29;20037;-85
2022/06/13 05:28:31;;;;;;;23.15;7.05;;;;;;;22.31;52.04;99179.72;4823377;29;20062;-85
2022/06/13 05:31:01;;;;;;;23.50;7.47;;;;;;;22.32;51.32;99166.59;4841208;29;20535;-85
2022/06/13 05:33:35;;;;;;;29.25;7.35;;;;;;;22.36;51.84;99159.06;4843294;29;20057;-87
2022/06/13 05:36:04;;;;;;;33.47;6.88;;;;;;;22.30;50.96;99153.09;4841682;29;20056;-86
2022/06/13 05:38:39;;;;;;;20.25;6.95;;;;;;;22.54;51.69;99175.78;4842405;29;20488;-87
2022/06/13 05:41:05;;;;;;;36.58;7.47;;;;;;;22.56;51.54;99165.06;4838349;29;20092;-88
2022/06/13 05:43:31;;;;;;;33.15;8.90;;;;;;;22.69;51.55;99169.81;4823827;29;20052;-87
2022/06/13 05:45:58;;;;;;;30.20;8.10;;;;;;;22.76;50.63;99180.19;4825090;29;20045;-89
2022/06/13 05:48:25;;;;;;;30.60;8.75;;;;;;;22.72;50.71;99152.31;4818006;29;20905;-85
2022/06/13 05:50:51;;;;;;;;;;;;;;;22.89;50.79;99177.78;4840675;29;20516;-86
2022/06/13 05:53:21;;;;;;;20.05;8.20;;;;;;;22.98;50.95;99158.69;4837852;29;19931;-86
2022/06/13 05:55:48;;;;;;;22.27;8.07;;;;;;;23.35;50.92;99171.38;4839791;29;20050;-87
2022/06/13 05:58:17;;;;;;;15.18;6.93;;;;;;;23.38;49.63;99165.00;4836789;29;20141;-88
2022/06/13 06:00:50;;;;;;;14.13;6.85;;;;;;;23.26;49.96;99154.25;4835337;29;20044;-85
2022/06/13 06:03:16;;;;;;;22.58;7.50;;;;;;;23.38;50.83;99165.00;4822991;29;20147;-85
2022/06/13 06:05:43;;;;;;;15.20;6.87;;;;;;;23.44;50.00;99163.34;4840338;29;20531;-86
2022/06/13 06:08:15;;;;;;;;;;;;;;;23.54;49.95;99158.94;4823843;29;20318;-87
2022/06/13 06:10:42;;;;;;;11.48;6.63;;;;;;;23.39;50.23;99130.31;4839115;29;20310;-86
2022/06/13 06:13:10;;;;;;;26.80;6.45;;;;;;;23.41;49.83;99114.75;4820354;29;20054;-88
2022/06/13 06:15:42;;;;;;;40.25;11.63;;;;;;;23.59;50.38;99125.84;4806760;29;20461;-86
2022/06/13 06:18:09;;;;;;;17.65;6.03;;;;;;;23.86;49.25;99140.09;4821236;29;20708;-87
2022/06/13 06:23:51;;;;;;;14.68;5.72;;;;;;;24.21;50.04;99135.50;4838802;29;20049;-88
2022/06/13 06:26:42;;;;;;;12.65;6.13;;;;;;;24.43;49.66;99160.50;4821506;29;20104;-88
2022/06/13 06:29:09;;;;;;;14.35;6.15;;;;;;;24.07;48.55;99116.84;4835507;29;20121;-87
2022/06/13 06:31:35;;;;;;;12.13;5.85;;;;;;;24.18;49.26;99116.75;4836022;29;20100;-85
2022/06/13 06:34:04;;;;;;;22.30;5.88;;;;;;;24.44;49.66;99134.97;4817870;29;20447;-86
2022/06/13 06:36:32;;;;;;;29.35;10.82;;;;;;;24.49;48.18;99140.09;4837602;29;20140;-90
2022/06/13 06:38:58;;;;;;;12.32;6.85;;;;;;;24.38;48.74;99125.41;4835250;29;20045;-85
2022/06/13 06:41:28;;;;;;;16.23;7.80;;;;;;;24.38;48.64;99117.00;4837231;29;20054;-92
2022/06/13 06:43:54;;;;;;;14.85;5.50;;;;;;;24.51;48.66;99106.94;4811012;29;20038;-86
2022/06/13 06:46:20;;;;;;;23.10;5.85;;;;;;;24.65;48.43;99113.63;4825285;29;20071;-90
2022/06/13 06:48:49;;;;;;;14.02;6.05;;;;;;;24.87;48.12;99142.16;4841386;29;20884;-83
2022/06/13 06:51:16;;;;;;;10.32;6.60;;;;;;;24.71;47.91;99111.97;4841158;29;20593;-86
2022/06/13 07:02:19;;;;;;;14.18;6.68;;;;;;;24.69;48.27;99109.56;4845332;29;20046;-89
2022/06/13 07:04:50;;;;;;;11.98;6.20;;;;;;;24.73;48.89;99127.09;4840315;29;20026;-93
2022/06/13 07:07:16;;;;;;;18.10;8.77;;;;;;;24.55;47.90;99099.31;4839415;29;20046;-87
2022/06/13 07:10:08;;;;;;;24.70;8.43;;;;;;;24.95;47.91;99157.69;4850253;29;20052;-86
2022/06/13 07:15:40;;;;;;;12.77;5.95;;;;;;;24.84;46.81;99118.63;4856861;29;20057;-87
2022/06/13 07:18:12;;;;;;;;;;;;;;;25.06;47.01;99150.75;4865134;29;20048;-86
2022/06/13 07:20:39;;;;;;;15.70;6.30;;;;;;;25.07;47.30;99146.78;4863999;29;20006;-87
2022/06/13 07:23:06;;;;;;;17.88;7.00;;;;;;;25.02;47.63;99127.63;4896259;29;20053;-86
2022/06/13 07:25:34;;;;;;;13.68;6.35;;;;;;;25.05;48.28;99112.81;4865591;29;20084;-88
2022/06/13 07:28:00;;;;;;;19.63;6.35;;;;;;;25.19;47.84;99125.09;4836779;29;20555;-87
2022/06/13 07:30:29;;;;;;;20.65;6.00;;;;;;;25.33;47.49;99138.13;4857306;29;20065;-85
2022/06/13 07:32:56;;;;;;;17.13;6.63;;;;;;;25.38;46.88;99141.25;4869212;29;20041;-85
2022/06/13 07:35:25;;;;;;;27.35;5.63;;;;;;;25.35;47.07;99132.91;4849311;29;20049;-85
2022/06/13 07:40:37;;;;;;;10.55;6.22;;;;;;;25.38;47.73;99129.28;4865002;29;20100;-87
2022/06/13 07:43:11;;;;;;;21.27;7.57;;;;;;;25.09;47.42;99124.75;4840691;29;20060;-86
2022/06/13 07:45:40;;;;;;;28.23;7.38;;;;;;;25.15;47.84;99144.72;4861484;29;20104;-85
2022/06/13 07:48:07;;;;;;;21.00;7.20;;;;;;;25.17;48.45;99149.91;4824913;29;20042;-87
2022/06/13 07:50:33;;;;;;;15.07;6.38;;;;;;;25.16;48.32;99140.69;4877006;29;20108;-86
2022/06/13 07:52:59;;;;;;;27.77;8.65;;;;;;;25.08;48.33;99133.56;4838275;29;20100;-86
2022/06/13 07:55:28;;;;;;;26.75;8.43;;;;;;;25.22;48.57;99152.22;4860423;29;20052;-86
2022/06/13 07:57:54;;;;;;;10.00;7.13;;;;;;;25.13;49.43;99137.94;4818646;29;20041;-85
2022/06/13 08:00:24;;;;;;;23.23;7.47;;;;;;;25.19;49.33;99153.06;4874952;29;20100;-85
2022/06/13 08:02:53;;;;;;;24.35;6.72;;;;;;;25.24;48.94;99156.22;4870206;29;20431;-87
2022/06/13 08:05:20;;;;;;;42.53;9.38;;;;;;;25.31;49.59;99142.13;4844756;29;20037;-85
2022/06/13 08:07:46;;;;;;;;;;;;;;;25.27;48.72;99140.59;4857010;29;20559;-86
2022/06/13 08:10:12;;;;;;;22.00;8.15;;;;;;;25.31;48.93;99141.34;4881555;29;19928;-87
2022/06/13 08:12:43;;;;;;;19.85;6.15;;;;;;;25.23;46.08;99135.06;4881508;29;20587;-86
2022/06/13 08:15:11;;;;;;;16.35;6.13;;;;;;;25.18;45.32;99140.28;4878392;29;20536;-84
2022/06/13 08:17:37;;;;;;;12.27;5.53;;;;;;;25.08;45.09;99144.75;4855507;29;20052;-84
2022/06/13 08:20:07;;;;;;;14.43;6.03;;;;;;;25.13;45.64;99135.94;4878047;29;20529;-87
2022/06/13 08:22:40;;;;;;;11.90;5.47;;;;;;;25.23;46.13;99137.03;4836680;29;20412;-86
2022/06/13 08:25:06;;;;;;;10.27;5.32;;;;;;;25.17;45.63;99141.50;4844973;29;20050;-84
2022/06/13 08:27:32;;;;;;;17.38;5.88;;;;;;;25.17;46.27;99139.50;4871226;29;20130;-85
2022/06/13 08:29:58;;;;;;;23.52;5.47;;;;;;;25.22;46.25;99127.06;4870547;29;20045;-87
2022/06/13 08:32:25;;;;;;;6.70;4.93;;;;;;;25.14;45.74;99109.56;4866944;29;20538;-87
2022/06/13 08:34:51;;;;;;;15.73;5.68;;;;;;;25.19;45.34;99119.50;4862191;29;20049;-86
2022/06/13 08:37:17;;;;;;;9.93;5.25;;;;;;;25.30;45.89;99128.56;4853952;29;20041;-85
2022/06/13 08:39:44;;;;;;;11.60;5.25;;;;;;;25.25;45.55;99110.22;4838815;29;20068;-86
2022/06/13 08:42:27;;;;;;;12.20;5.13;;;;;;;25.25;45.62;99101.84;4849598;29;20041;-86
2022/06/13 08:45:07;;;;;;;14.48;5.45;;;;;;;25.45;46.34;99120.78;4820710;29;20042;-85
2022/06/13 08:47:44;;;;;;;17.15;5.47;;;;;;;25.50;45.05;99114.75;4849009;29;20041;-85
2022/06/13 08:50:18;;;;;;;13.02;5.10;;;;;;;25.53;45.36;99119.50;4870704;29;20178;-87
2022/06/13 08:53:23;;;;;;;9.10;6.00;;;;;;;25.53;44.87;99111.91;4816299;29;20042;-85
2022/06/13 08:58:59;;;;;;;14.23;5.60;;;;;;;25.55;44.75;99061.09;4756346;30;20055;-86
2022/06/13 09:01:55;;;;;;;10.23;5.55;;;;;;;25.84;44.74;99102.72;4781611;30;20046;-85
2022/06/13 09:04:34;;;;;;;7.63;5.00;;;;;;;25.86;45.60;99095.50;4769037;30;20112;-86
2022/06/13 09:07:20;;;;;;;9.48;5.75;;;;;;;25.86;45.35;99094.69;4755570;30;20079;-86
2022/06/13 09:09:54;;;;;;;14.70;7.00;;;;;;;25.80;45.33;99094.38;4789158;30;20644;-87
2022/06/13 09:12:32;;;;;;;14.82;5.13;;;;;;;25.74;44.52;99084.81;4787652;30;20063;-85
2022/06/13 09:15:18;;;;;;;12.70;5.53;;;;;;;25.90;44.67;99090.63;4786834;30;20047;-86
2022/06/13 09:18:05;;;;;;;15.43;5.10;;;;;;;25.79;44.24;99078.75;4768575;29;20579;-84
2022/06/13 09:20:45;;;;;;;17.73;4.97;;;;;;;25.83;44.18;99090.75;4775742;30;20062;-86
2022/06/13 09:23:37;;;;;;;19.70;6.78;;;;;;;25.59;44.11;99091.81;4777944;30;20518;-84
2022/06/13 09:26:47;;;;;;;28.30;5.88;;;;;;;25.42;44.90;99096.44;4768227;30;20502;-87
2022/06/13 09:29:33;;;;;;;13.25;5.13;;;;;;;25.26;45.61;99095.00;4773430;30;20196;-84
2022/06/13 09:32:12;;;;;;;10.50;5.32;;;;;;;25.26;45.69;99092.22;4788149;29;20060;-85
2022/06/13 09:34:48;;;;;;;11.05;4.90;;;;;;;25.12;44.69;99080.41;4869031;29;20041;-88
2022/06/13 09:37:39;;;;;;;13.38;5.10;;;;;;;25.25;43.34;99070.28;4880464;29;20053;-85
2022/06/13 09:40:12;;;;;;;11.18;4.93;;;;;;;25.62;43.05;99065.78;4864137;29;20538;-85
2022/06/13 09:43:04;;;;;;;11.48;4.53;;;;;;;25.76;41.51;99083.19;4879937;29;20048;-87
2022/06/13 09:45:49;;;;;;;10.82;4.47;;;;;;;25.95;41.15;99086.56;4879831;29;20037;-79
2022/06/13 09:48:30;;;;;;;9.30;4.80;;;;;;;25.83;44.67;99087.94;4880179;29;20077;-79
2022/06/13 09:51:10;;;;;;;11.85;5.32;;;;;;;25.87;41.18;99085.09;4861657;29;20448;-79
2022/06/13 09:53:48;;;;;;;15.07;4.95;;;;;;;25.92;41.52;99087.41;4865585;29;20045;-77
2022/06/13 09:56:28;;;;;;;9.27;4.75;;;;;;;25.61;42.74;99081.81;4879515;29;20049;-87
2022/06/13 09:59:02;;;;;;;14.13;4.68;;;;;;;25.21;43.41;99094.69;4848180;29;20045;-84
2022/06/13 10:01:44;;;;;;;16.42;6.63;;;;;;;24.70;44.16;99051.66;4847869;29;20049;-87
2022/06/13 10:05:07;;;;;;;13.88;6.95;;;;;;;24.62;42.89;99090.09;4863041;29;20045;-84
2022/06/13 10:07:59;;;;;;;18.23;5.97;;;;;;;24.95;44.95;99094.16;4823923;29;20071;-84
2022/06/13 10:10:28;;;;;;;16.50;8.60;;;;;;;24.52;42.85;99072.19;4807318;29;20042;-88
2022/06/13 10:13:03;;;;;;;12.20;5.35;;;;;;;24.66;43.14;99079.66;4776630;29;20050;-88
2022/06/13 10:16:04;;;;;;;20.10;7.82;;;;;;;24.56;44.23;99081.34;4812074;29;20210;-89
2022/06/13 10:19:17;;;;;;;15.18;6.97;;;;;;;24.45;44.52;99077.88;4810589;29;20058;-90
2022/06/13 10:21:47;;;;;;;11.32;5.50;;;;;;;24.24;44.26;99056.47;4792258;29;20057;-89
2022/06/13 10:24:44;;;;;;;15.23;5.60;;;;;;;24.49;44.42;99089.78;4806610;29;20403;-88
2022/06/13 10:27:37;;;;;;;11.18;5.15;;;;;;;24.74;43.86;99088.78;4801665;29;20095;-88
2022/06/13 10:30:34;;;;;;;25.00;5.70;;;;;;;24.70;43.63;99068.44;4821023;29;20046;-87
2022/06/13 10:33:37;;;;;;;21.45;5.32;;;;;;;24.82;43.79;99079.91;4822367;29;20054;-88
2022/06/13 10:36:31;;;;;;;12.68;6.88;;;;;;;25.07;43.14;99064.88;4821339;29;20042;-85
2022/06/13 10:39:17;;;;;;;10.00;4.93;;;;;;;25.05;43.91;99012.13;4852535;29;20045;-90
2022/06/13 10:41:52;;;;;;;10.73;4.95;;;;;;;25.23;42.28;99013.94;4859264;29;20555;-90
2022/06/13 10:44:19;;;;;;;8.57;3.93;;;;;;;25.61;41.58;99036.22;4859763;29;20427;-89
2022/06/13 10:46:50;;;;;;;11.82;4.72;;;;;;;25.72;40.86;99023.63;4830865;29;20052;-88
2022/06/13 10:49:35;;;;;;;11.60;5.38;;;;;;;25.72;40.45;99014.47;4844032;29;20050;-88
2022/06/13 10:52:27;;;;;;;11.45;5.50;;;;;;;26.12;39.46;99054.66;4860418;29;20045;-90
2022/06/13 10:55:00;;;;;;;21.55;4.85;;;;;;;26.12;39.82;99020.25;4844048;29;20109;-88
2022/06/13 10:57:34;;;;;;;15.15;4.82;;;;;;;26.25;38.74;99024.03;4838058;29;20499;-89
2022/06/13 11:00:20;;;;;;;58.70;5.30;;;;;;;26.22;38.07;99038.91;4843222;29;20037;-88
2022/06/13 11:02:49;;;;;;;15.43;4.95;;;;;;;25.84;38.02;98988.72;4865777;29;20048;-89
2022/06/13 11:05:17;;;;;;;13.00;4.50;;;;;;;25.97;38.64;99002.91;4859494;29;20049;-88
2022/06/13 11:07:55;;;;;;;7.35;4.85;;;;;;;26.23;38.67;99037.69;4835021;29;20053;-88
2022/06/13 11:10:36;;;;;;;15.05;4.30;;;;;;;25.88;38.70;99006.22;4858054;29;20495;-89
2022/06/13 11:13:13;;;;;;;10.48;4.78;;;;;;;25.72;39.18;98989.25;4858435;29;20057;-90
2022/06/13 11:24:51;;;;;;;16.67;6.03;;;;;;;25.93;41.09;99047.00;4841605;29;20050;-89
2022/06/13 11:28:09;;;;;;;7.32;4.38;;;;;;;25.75;40.46;99019.22;4833026;29;20650;-89
2022/06/13 11:30:38;;;;;;;10.23;4.55;;;;;;;25.66;40.92;99022.56;4846822;29;20138;-88
2022/06/13 11:34:06;;;;;;;6.53;4.63;;;;;;;25.73;41.66;99044.06;4840582;29;20137;-89
2022/06/13 11:36:34;;;;;;;9.32;5.25;;;;;;;25.40;40.62;99004.53;4841127;29;20049;-90
2022/06/13 11:39:04;;;;;;;8.65;5.68;;;;;;;25.35;40.90;99001.41;4825087;29;20037;-91
2022/06/13 11:41:46;;;;;;;11.50;5.70;;;;;;;25.31;41.07;98987.47;4841049;29;20041;-90
2022/06/13 11:44:21;;;;;;;9.07;4.88;;;;;;;25.37;41.43;99005.38;4825935;29;20042;-91
2022/06/13 11:47:14;;;;;;;14.45;6.65;;;;;;;25.47;41.70;99038.00;4841957;29;20069;-90
2022/06/13 11:49:52;;;;;;;17.17;5.47;;;;;;;25.25;42.00;99003.13;4844829;29;20055;-88
2022/06/13 11:55:31;;;;;;;23.40;6.10;;;;;;;25.31;41.88;99027.41;4859603;29;20423;-88
2022/06/13 11:58:01;;;;;;;10.93;6.05;;;;;;;25.22;41.27;99006.75;4859479;29;20133;-87
2022/06/13 12:00:49;;;;;;;13.15;5.72;;;;;;;25.35;41.50;99046.97;4842764;29;20110;-88
2022/06/13 12:03:21;;;;;;;10.20;5.85;;;;;;;25.00;42.13;99009.00;4874428;29;20595;-88
2022/06/13 12:05:57;;;;;;;7.53;5.47;;;;;;;25.21;42.31;99044.34;4859896;29;20057;-89
2022/06/13 12:08:28;;;;;;;14.82;5.10;;;;;;;25.17;43.65;99058.38;4858684;29;20495;-89
2022/06/13 12:10:58;;;;;;;15.32;6.07;;;;;;;25.05;43.78;99045.69;4859393;29;20045;-89
2022/06/13 12:13:26;;;;;;;16.98;6.20;;;;;;;24.82;45.86;99046.34;4874410;29;20538;-87
2022/06/13 12:16:28;;;;;;;11.52;6.40;;;;;;;24.48;48.87;99020.38;4877068;29;20541;-86
2022/06/13 12:19:17;;;;;;;15.25;6.88;;;;;;;24.24;49.32;99055.66;4846948;29;20037;-87
2022/06/13 12:21:54;;;;;;;16.27;7.93;;;;;;;23.90;53.08;99059.88;4858895;29;20040;-88
2022/06/13 12:24:26;;;;;;;24.60;8.15;;;;;;;23.74;53.45;99062.41;4878107;29;20045;-89
2022/06/13 12:27:06;;;;;;;17.25;9.38;;;;;;;23.51;54.75;99062.91;4861391;29;20471;-89
2022/06/13 12:29:58;;;;;;;22.13;11.13;;;;;;;23.29;56.34;99067.00;4829206;29;20479;-87
2022/06/13 12:32:31;;;;;;;28.92;12.73;;;;;;;22.82;58.89;99049.59;4877906;29;20105;-89
2022/06/13 12:35:23;;;;;;;23.38;13.90;;;;;;;22.84;60.75;99072.25;4846120;29;20056;-88
2022/06/13 12:38:13;;;;;;;20.33;11.15;;;;;;;22.73;60.73;99069.50;4830868;29;20049;-88
2022/06/13 12:40:58;;;;;;;17.55;11.80;;;;;;;22.60;62.28;99062.75;4812110;29;20049;-88
2022/06/13 12:43:57;;;;;;;24.45;14.43;;;;;;;22.49;63.99;99055.22;4845806;29;20579;-89
2022/06/13 12:46:38;;;;;;;34.47;21.10;;;;;;;22.26;64.48;99061.19;4877707;29;20045;-87